Time;durP1;ratioP1;P1;durP2;ratioP2;P2;SDS_P1;SDS_P2;PMS_P1;PMS_P2;Temp;Humidity;BMP_temperature;BMP_pressure;BME280_temperature;BME280_humidity;BME280_pressure;Samples;Min_cycle;Max_cycle;Signal;HPM_P1;HPM_P2
2024/01/08 00:01:16;;;;;;;8.52;5.30;;;-2.00;99.90;;;;;;5060663;28;20040;-70
2024/01/08 00:03:41;;;;;;;9.82;5.53;;;-2.10;99.90;;;;;;5057427;28;20565;-71
2024/01/08 00:06:07;;;;;;;5.75;4.88;;;-2.10;99.90;;;;;;5061652;28;20044;-70
2024/01/08 00:08:33;;;;;;;10.13;5.38;;;-2.10;99.90;;;;;;5061821;28;20059;-70
2024/01/08 00:10:58;;;;;;;7.40;5.18;;;-2.00;99.90;;;;;;5057114;28;20044;-70
2024/01/08 00:13:24;;;;;;;8.15;5.65;;;-2.10;99.90;;;;;;5058622;28;20048;-70
2024/01/08 00:15:49;;;;;;;9.35;5.40;;;-2.10;99.90;;;;;;5059419;28;20040;-70
2024/01/08 00:18:16;;;;;;;7.10;5.30;;;-2.10;99.90;;;;;;5060232;28;20047;-70
2024/01/08 00:20:42;;;;;;;7.57;5.80;;;-2.10;99.90;;;;;;5061285;28;20086;-71
2024/01/08 00:23:08;;;;;;;9.95;5.95;;;-2.10;99.90;;;;;;5058571;28;20847;-70
2024/01/08 00:25:34;;;;;;;7.07;5.32;;;-2.10;99.90;;;;;;5059826;28;20040;-70
2024/01/08 00:28:00;;;;;;;10.05;5.57;;;-2.10;99.90;;;;;;5056772;28;20186;-71
2024/01/08 00:30:26;;;;;;;10.25;5.65;;;-2.20;99.90;;;;;;5055069;28;20414;-70
2024/01/08 00:32:52;;;;;;;7.55;5.53;;;-2.20;99.90;;;;;;5060759;28;20090;-71
2024/01/08 00:35:18;;;;;;;8.95;5.70;;;-2.20;99.90;;;;;;5056048;28;20647;-69
2024/01/08 00:37:43;;;;;;;8.60;5.68;;;-2.20;99.90;;;;;;5058385;28;20044;-70
2024/01/08 00:40:10;;;;;;;10.18;5.78;;;-2.20;99.90;;;;;;5060429;28;20048;-70
2024/01/08 00:42:37;;;;;;;7.43;5.35;;;-2.20;99.90;;;;;;5058296;28;20504;-70
2024/01/08 00:45:03;;;;;;;8.48;5.35;;;-2.20;99.90;;;;;;5058817;28;20041;-71
2024/01/08 00:47:29;;;;;;;7.78;5.07;;;-2.20;99.90;;;;;;5059492;28;20394;-70
2024/01/08 00:49:55;;;;;;;7.75;5.50;;;-2.20;99.90;;;;;;5056912;28;20044;-70
2024/01/08 00:52:20;;;;;;;10.90;6.05;;;-2.20;99.90;;;;;;5054880;28;20143;-71
2024/01/08 00:54:46;;;;;;;9.73;5.55;;;-2.20;99.90;;;;;;5061266;28;20032;-71
2024/01/08 00:57:12;;;;;;;9.48;5.32;;;-2.20;99.90;;;;;;5058988;28;20040;-71
2024/01/08 00:59:37;;;;;;;8.43;5.22;;;-2.20;99.90;;;;;;5056067;28;20048;-70
2024/01/08 01:02:03;;;;;;;8.73;5.80;;;-2.20;99.90;;;;;;5058116;28;20045;-70
2024/01/08 01:04:29;;;;;;;8.77;5.68;;;-2.20;99.90;;;;;;5056850;28;20045;-71
2024/01/08 01:06:55;;;;;;;8.63;6.10;;;-2.20;99.90;;;;;;5059532;28;20044;-71
2024/01/08 01:09:21;;;;;;;8.93;6.22;;;-2.20;99.90;;;;;;5053596;28;20044;-71
2024/01/08 01:11:46;;;;;;;9.65;6.35;;;-2.20;99.90;;;;;;5056904;28;20804;-70
2024/01/08 01:14:12;;;;;;;8.38;5.80;;;-2.20;99.90;;;;;;5058422;28;20172;-70
2024/01/08 01:16:38;;;;;;;10.73;6.22;;;-2.20;99.90;;;;;;5057434;28;20633;-70
2024/01/08 01:19:03;;;;;;;9.35;6.57;;;-2.20;99.90;;;;;;5060221;28;20109;-70
2024/01/08 01:21:29;;;;;;;11.02;6.60;;;-2.20;99.90;;;;;;5057956;28;20076;-70
2024/01/08 01:23:55;;;;;;;9.43;6.28;;;-2.10;99.90;;;;;;5055889;28;20040;-69
2024/01/08 01:26:21;;;;;;;9.77;6.10;;;-2.10;99.90;;;;;;5061579;28;20109;-70
2024/01/08 01:28:47;;;;;;;9.15;6.45;;;-2.00;99.90;;;;;;5054237;28;20047;-70
2024/01/08 01:31:13;;;;;;;11.68;6.82;;;-2.00;99.90;;;;;;5056495;28;20044;-70
2024/01/08 01:33:39;;;;;;;9.68;6.35;;;-1.90;99.90;;;;;;5052797;28;20044;-70
2024/01/08 01:36:08;;;;;;;11.88;6.57;;;-1.90;99.90;;;;;;5058737;28;20075;-70
2024/01/08 01:38:34;;;;;;;9.77;6.47;;;-1.80;99.90;;;;;;5061265;28;20055;-70
2024/01/08 01:41:00;;;;;;;10.13;6.57;;;-1.80;99.90;;;;;;5055728;28;20045;-71
2024/01/08 01:43:28;;;;;;;10.02;6.28;;;-1.80;99.90;;;;;;5040479;28;20058;-70
2024/01/08 01:45:57;;;;;;;9.50;6.30;;;-1.70;99.90;;;;;;5054898;28;20487;-70
2024/01/08 01:48:23;;;;;;;9.45;6.78;;;-1.70;99.90;;;;;;5057539;28;20792;-69
2024/01/08 01:50:50;;;;;;;10.57;6.35;;;-1.70;99.90;;;;;;5057503;28;20072;-69
2024/01/08 01:53:16;;;;;;;11.10;6.20;;;-1.70;99.90;;;;;;5052993;28;20048;-69
2024/01/08 01:55:43;;;;;;;9.75;6.35;;;-1.60;99.90;;;;;;5055070;28;20094;-69
2024/01/08 01:58:12;;;;;;;11.90;6.70;;;-1.60;99.90;;;;;;5056569;28;20047;-69
2024/01/08 02:00:38;;;;;;;11.48;6.63;;;-1.60;99.90;;;;;;5056319;28;20051;-69
2024/01/08 02:03:06;;;;;;;11.55;6.68;;;-1.60;99.90;;;;;;5060162;28;20044;-69
2024/01/08 02:05:32;;;;;;;9.35;6.25;;;-1.60;99.90;;;;;;5038909;28;20045;-69
2024/01/08 02:07:58;;;;;;;12.35;6.75;;;-1.60;99.90;;;;;;5056999;28;20477;-69
2024/01/08 02:10:25;;;;;;;9.43;6.45;;;-1.60;99.90;;;;;;5058242;28;20061;-69
2024/01/08 02:12:51;;;;;;;8.95;6.43;;;-1.50;99.90;;;;;;5059492;28;20066;-69
2024/01/08 02:15:17;;;;;;;12.45;7.15;;;-1.50;99.90;;;;;;5059289;28;20048;-69
2024/01/08 02:17:42;;;;;;;9.73;7.00;;;-1.50;99.90;;;;;;5064896;28;20037;-69
2024/01/08 02:20:09;;;;;;;10.10;7.20;;;-1.40;99.90;;;;;;5061957;28;20075;-69
2024/01/08 02:22:41;;;;;;;8.90;6.50;;;-1.40;99.90;;;;;;5059337;28;20474;-69
2024/01/08 02:25:11;;;;;;;11.05;6.85;;;-1.40;99.90;;;;;;5062107;28;20039;-69
2024/01/08 02:27:36;;;;;;;10.75;7.07;;;-1.30;99.90;;;;;;5064245;28;20521;-69
2024/01/08 02:30:04;;;;;;;12.40;7.50;;;-1.30;99.90;;;;;;5060824;28;20056;-68
2024/01/08 02:32:30;;;;;;;12.52;7.00;;;-1.30;99.90;;;;;;5056419;28;20044;-69
2024/01/08 02:34:55;;;;;;;11.25;7.00;;;-1.20;99.90;;;;;;5061843;28;20075;-69
2024/01/08 02:37:21;;;;;;;10.77;7.10;;;-1.20;99.90;;;;;;5060115;28;20453;-70
2024/01/08 02:39:46;;;;;;;13.63;8.00;;;-1.20;99.90;;;;;;5062225;28;20049;-70
2024/01/08 02:42:13;;;;;;;11.73;7.22;;;-1.20;99.90;;;;;;5059123;28;20041;-69
2024/01/08 02:44:40;;;;;;;11.93;8.00;;;-1.10;99.90;;;;;;5056270;28;20121;-70
2024/01/08 02:47:06;;;;;;;12.20;8.43;;;-1.10;99.90;;;;;;5058597;28;20490;-70
2024/01/08 02:49:32;;;;;;;12.65;7.97;;;-1.10;99.90;;;;;;5059497;28;20037;-69
2024/01/08 02:51:57;;;;;;;10.02;7.05;;;-1.10;99.90;;;;;;5060026;28;20072;-71
2024/01/08 02:54:23;;;;;;;14.00;8.48;;;-1.00;99.90;;;;;;5060123;28;20048;-70
2024/01/08 02:56:50;;;;;;;13.90;8.65;;;-1.00;99.90;;;;;;5060652;28;20384;-70
2024/01/08 02:59:16;;;;;;;12.40;8.18;;;-1.10;99.90;;;;;;5054397;28;20079;-69
2024/01/08 03:01:42;;;;;;;12.48;8.25;;;-1.10;99.90;;;;;;5059944;28;20045;-69
2024/01/08 03:04:07;;;;;;;12.45;8.00;;;-1.10;99.90;;;;;;5058794;28;20463;-70
2024/01/08 03:06:33;;;;;;;12.90;7.72;;;-1.10;99.90;;;;;;5060074;28;20483;-70
2024/01/08 03:08:58;;;;;;;10.95;8.23;;;-1.00;99.90;;;;;;5034687;28;20590;-69
2024/01/08 03:11:24;;;;;;;11.93;7.78;;;-1.00;99.90;;;;;;5060827;28;20049;-69
2024/01/08 03:13:50;;;;;;;10.57;8.00;;;-1.00;99.90;;;;;;5060396;28;20387;-69
2024/01/08 03:16:18;;;;;;;13.18;8.05;;;-1.00;99.90;;;;;;5058988;28;20068;-70
2024/01/08 03:18:46;;;;;;;11.32;7.70;;;-1.00;99.90;;;;;;5054860;28;20396;-69
2024/01/08 03:21:12;;;;;;;11.77;7.93;;;-1.00;99.90;;;;;;5062505;28;20144;-69
2024/01/08 03:23:37;;;;;;;11.77;7.95;;;-0.90;99.90;;;;;;5062705;28;20490;-69
2024/01/08 03:26:03;;;;;;;11.55;8.40;;;-0.90;99.90;;;;;;5057304;28;20040;-69
2024/01/08 03:28:29;;;;;;;15.38;8.68;;;-0.90;99.90;;;;;;5057006;28;20133;-68
2024/01/08 03:30:54;;;;;;;12.88;8.45;;;-0.90;99.90;;;;;;5062618;28;20131;-68
2024/01/08 03:33:20;;;;;;;12.93;8.50;;;-0.90;99.90;;;;;;5060063;28;20812;-69
2024/01/08 03:35:46;;;;;;;13.10;8.85;;;-0.80;99.90;;;;;;5059766;28;20510;-69
2024/01/08 03:38:11;;;;;;;11.88;7.80;;;-0.90;99.90;;;;;;5057686;28;20048;-69
2024/01/08 03:40:37;;;;;;;13.07;8.38;;;-0.80;99.90;;;;;;5054663;28;20043;-69
2024/01/08 03:43:03;;;;;;;12.35;8.52;;;-0.70;99.90;;;;;;5060624;28;20105;-69
2024/01/08 03:45:28;;;;;;;10.38;7.55;;;-0.70;99.90;;;;;;5053913;28;20118;-68
2024/01/08 03:47:54;;;;;;;10.68;8.15;;;-0.80;99.90;;;;;;5054221;28;20073;-69
2024/01/08 03:50:20;;;;;;;12.55;8.40;;;-0.70;99.90;;;;;;5053670;28;20045;-69
2024/01/08 03:52:46;;;;;;;13.93;8.43;;;-0.80;99.90;;;;;;5058004;28;20037;-69
2024/01/08 03:55:11;;;;;;;12.07;7.78;;;-0.70;99.90;;;;;;5051738;28;20036;-69
2024/01/08 03:57:37;;;;;;;11.98;7.63;;;-0.70;99.90;;;;;;5049938;28;20218;-70
2024/01/08 04:00:03;;;;;;;13.25;8.27;;;-0.70;99.90;;;;;;5055778;28;20044;-69
2024/01/08 04:02:29;;;;;;;11.00;7.45;;;-0.70;99.90;;;;;;5041378;28;20361;-69
2024/01/08 04:04:55;;;;;;;10.20;7.20;;;-0.70;99.90;;;;;;5057806;28;20045;-70
2024/01/08 04:07:20;;;;;;;9.10;6.57;;;-0.70;99.90;;;;;;5060070;28;20040;-70
2024/01/08 04:09:46;;;;;;;11.35;7.00;;;-0.70;99.90;;;;;;5051986;28;20048;-69
2024/01/08 04:12:13;;;;;;;10.98;6.68;;;-0.70;99.90;;;;;;5052873;28;20075;-69
2024/01/08 04:14:38;;;;;;;9.48;7.00;;;-0.70;99.90;;;;;;5056928;28;20048;-70
2024/01/08 04:17:05;;;;;;;9.50;6.80;;;-0.70;99.90;;;;;;5061000;28;20387;-69
2024/01/08 04:19:31;;;;;;;10.55;6.78;;;-0.70;99.90;;;;;;5058057;28;20036;-70
2024/01/08 04:21:57;;;;;;;10.40;6.57;;;-0.70;99.90;;;;;;5057073;28;20106;-69
2024/01/08 04:24:24;;;;;;;8.70;6.40;;;-0.70;99.90;;;;;;5059131;28;20048;-69
2024/01/08 04:26:50;;;;;;;7.53;6.35;;;-0.70;99.90;;;;;;5058586;28;20036;-69
2024/01/08 04:29:16;;;;;;;10.02;6.93;;;-0.70;99.90;;;;;;5058166;28;20094;-69
2024/01/08 04:31:41;;;;;;;9.88;6.55;;;-0.70;99.90;;;;;;5057387;28;20662;-69
2024/01/08 04:34:07;;;;;;;10.15;7.07;;;-0.70;99.90;;;;;;5059902;28;20052;-70
2024/01/08 04:36:33;;;;;;;10.25;6.45;;;-0.60;99.90;;;;;;5053731;28;20071;-69
2024/01/08 04:38:58;;;;;;;8.38;6.45;;;-0.70;99.90;;;;;;5056087;28;20048;-69
2024/01/08 04:41:24;;;;;;;10.73;6.72;;;-0.70;99.90;;;;;;5054058;28;20049;-69
2024/01/08 04:43:50;;;;;;;8.68;6.70;;;-0.70;99.90;;;;;;5058245;28;20055;-69
2024/01/08 04:46:15;;;;;;;10.55;6.30;;;-0.70;99.90;;;;;;5054542;28;20048;-70
2024/01/08 04:48:41;;;;;;;8.70;6.38;;;-0.70;99.90;;;;;;5057873;28;20481;-69
2024/01/08 04:51:07;;;;;;;9.27;6.20;;;-0.70;99.90;;;;;;5055976;28;20045;-69
2024/01/08 04:53:36;;;;;;;9.65;6.18;;;-0.70;99.90;;;;;;5060593;28;20127;-69
2024/01/08 04:56:02;;;;;;;9.15;6.22;;;-0.70;99.90;;;;;;5054200;28;20049;-69
2024/01/08 04:58:28;;;;;;;7.57;5.72;;;-0.70;99.90;;;;;;5060768;28;20507;-70
2024/01/08 05:00:54;;;;;;;7.38;5.22;;;-0.70;99.90;;;;;;5056017;28;20048;-70
2024/01/08 05:03:20;;;;;;;8.52;5.57;;;-0.70;99.90;;;;;;5053754;28;20083;-69
2024/01/08 05:05:45;;;;;;;7.80;5.63;;;-0.70;99.90;;;;;;5056979;28;20109;-70
2024/01/08 05:08:11;;;;;;;8.43;5.28;;;-0.70;99.90;;;;;;5058360;28;20179;-69
2024/01/08 05:10:36;;;;;;;7.60;5.13;;;-0.70;99.90;;;;;;5057138;28;20399;-69
2024/01/08 05:13:02;;;;;;;8.30;5.65;;;-0.70;99.90;;;;;;5051416;28;20053;-69
2024/01/08 05:15:28;;;;;;;8.32;4.57;;;-0.70;99.90;;;;;;5055303;28;20072;-69
2024/01/08 05:17:53;;;;;;;5.70;4.53;;;-0.70;99.90;;;;;;5055275;28;20056;-69
2024/01/08 05:20:19;;;;;;;7.35;5.28;;;-0.80;99.90;;;;;;5057832;28;20042;-68
2024/01/08 05:22:46;;;;;;;6.55;5.00;;;-0.80;99.90;;;;;;5057694;28;20052;-68
2024/01/08 05:25:11;;;;;;;6.28;4.82;;;-0.80;99.90;;;;;;5057017;28;20052;-67
2024/01/08 05:27:37;;;;;;;6.00;4.72;;;-0.80;99.90;;;;;;5052992;28;20431;-68
2024/01/08 05:30:04;;;;;;;6.13;4.47;;;-0.80;99.90;;;;;;5050006;28;20040;-68
2024/01/08 05:32:29;;;;;;;5.72;4.45;;;-0.90;99.90;;;;;;5053139;28;20048;-70
2024/01/08 05:34:55;;;;;;;6.35;4.45;;;-0.90;99.90;;;;;;5053712;28;20094;-69
2024/01/08 05:37:21;;;;;;;7.65;4.90;;;-0.90;99.90;;;;;;5052758;28;20598;-70
2024/01/08 05:39:46;;;;;;;7.38;4.75;;;-0.90;99.90;;;;;;5055111;28;20499;-69
2024/01/08 05:42:12;;;;;;;6.45;4.82;;;-0.90;99.90;;;;;;5056940;28;20052;-69
2024/01/08 05:44:38;;;;;;;7.00;5.00;;;-0.90;99.90;;;;;;5058217;28;20506;-69
2024/01/08 05:47:04;;;;;;;6.25;4.93;;;-1.00;99.90;;;;;;5053586;28;20049;-69
2024/01/08 05:49:29;;;;;;;6.55;4.85;;;-1.00;99.90;;;;;;5051565;28;20419;-68
2024/01/08 05:51:55;;;;;;;8.07;5.53;;;-0.90;99.90;;;;;;5051713;28;20056;-68
2024/01/08 05:54:21;;;;;;;9.10;5.60;;;-0.90;99.90;;;;;;5057402;28;20045;-69
2024/01/08 05:56:46;;;;;;;8.27;5.70;;;-0.90;99.90;;;;;;5053894;28;20495;-68
2024/01/08 05:59:12;;;;;;;9.43;5.78;;;-0.90;99.90;;;;;;5053384;28;20047;-69
2024/01/08 06:01:39;;;;;;;9.57;5.68;;;-1.00;99.90;;;;;;5054180;28;20048;-68
2024/01/08 06:04:05;;;;;;;9.35;5.53;;;-0.90;99.90;;;;;;5053464;28;20044;-68
2024/01/08 06:06:31;;;;;;;10.45;5.53;;;-1.00;99.90;;;;;;5058391;28;20047;-69
2024/01/08 06:08:57;;;;;;;9.30;5.72;;;-1.00;99.90;;;;;;5054455;28;20400;-68
2024/01/08 06:11:24;;;;;;;8.82;5.90;;;-0.90;99.90;;;;;;5053925;28;20320;-68
2024/01/08 06:13:50;;;;;;;7.90;5.70;;;-0.90;99.90;;;;;;5053618;28;20187;-68
2024/01/08 06:16:16;;;;;;;9.35;5.90;;;-0.90;99.90;;;;;;5054250;28;20036;-68
2024/01/08 06:18:42;;;;;;;7.85;5.55;;;-1.00;99.90;;;;;;5058165;28;20080;-68
2024/01/08 06:21:08;;;;;;;9.45;6.13;;;-0.90;99.90;;;;;;5058108;28;20087;-68
2024/01/08 06:23:33;;;;;;;8.95;5.85;;;-0.90;99.90;;;;;;5057287;28;20068;-68
2024/01/08 06:26:02;;;;;;;10.45;6.13;;;-0.90;99.90;;;;;;5054248;28;20137;-68
2024/01/08 06:28:28;;;;;;;10.07;6.57;;;-0.90;99.90;;;;;;5056238;28;20372;-68
2024/01/08 06:30:54;;;;;;;10.65;6.72;;;-1.00;99.90;;;;;;5057714;28;20094;-68
2024/01/08 06:33:20;;;;;;;13.23;6.80;;;-1.00;99.90;;;;;;5048771;28;20057;-68
2024/01/08 06:35:45;;;;;;;10.68;6.78;;;-1.10;99.90;;;;;;5053676;28;20045;-68
2024/01/08 06:38:11;;;;;;;14.40;6.85;;;-1.10;99.90;;;;;;5054189;28;20656;-68
2024/01/08 06:40:36;;;;;;;14.30;7.45;;;-1.00;99.90;;;;;;5053010;28;20041;-69
2024/01/08 06:43:02;;;;;;;11.27;6.97;;;-1.10;99.90;;;;;;5053871;28;20041;-67
2024/01/08 06:45:28;;;;;;;11.38;7.35;;;-1.10;99.90;;;;;;5051104;28;20044;-69
2024/01/08 06:47:54;;;;;;;9.13;6.72;;;-1.10;99.90;;;;;;5058416;28;20067;-69
2024/01/08 06:50:20;;;;;;;12.88;8.60;;;-1.10;99.90;;;;;;5056410;28;20060;-69
2024/01/08 06:52:47;;;;;;;11.18;7.68;;;-1.00;99.90;;;;;;5054949;28;20402;-70
2024/01/08 06:55:12;;;;;;;12.40;7.07;;;-1.10;99.90;;;;;;5058608;28;20041;-69
2024/01/08 06:57:38;;;;;;;17.15;8.20;;;-1.10;99.90;;;;;;5055013;28;20710;-70
2024/01/08 07:00:05;;;;;;;11.52;6.97;;;-1.00;99.90;;;;;;5055438;28;20143;-69
2024/01/08 07:02:31;;;;;;;15.43;11.32;;;-1.00;99.90;;;;;;5056466;28;20051;-68
2024/01/08 07:04:56;;;;;;;15.95;8.20;;;-1.00;99.90;;;;;;5057515;28;20040;-69
2024/01/08 07:07:22;;;;;;;14.13;8.20;;;-1.00;99.90;;;;;;5059974;28;20048;-69
2024/01/08 07:09:47;;;;;;;14.38;7.18;;;-1.00;99.90;;;;;;5053906;28;20040;-70
2024/01/08 07:12:13;;;;;;;12.68;7.10;;;-1.00;99.90;;;;;;5055231;28;20045;-68
2024/01/08 07:14:46;;;;;;;13.40;6.93;;;-1.00;99.90;;;;;;5051991;28;20112;-69
2024/01/08 07:17:11;;;;;;;11.13;6.55;;;-1.00;99.90;;;;;;5057008;28;20072;-68
2024/01/08 07:19:37;;;;;;;9.55;6.35;;;-1.00;99.90;;;;;;5058366;28;20040;-68
2024/01/08 07:22:02;;;;;;;10.95;6.60;;;-1.00;99.90;;;;;;5053135;28;20053;-68
2024/01/08 07:24:28;;;;;;;10.30;6.70;;;-1.00;99.90;;;;;;5036596;28;20636;-68
2024/01/08 07:26:54;;;;;;;11.10;6.35;;;-1.00;99.90;;;;;;5055296;28;20053;-69
2024/01/08 07:29:19;;;;;;;9.93;6.60;;;-1.00;99.90;;;;;;5059693;28;20147;-68
2024/01/08 07:31:45;;;;;;;9.25;6.10;;;-1.00;99.90;;;;;;5053229;28;20078;-69
2024/01/08 07:34:11;;;;;;;10.02;6.22;;;-1.00;99.90;;;;;;5054260;28;20145;-68
2024/01/08 07:36:37;;;;;;;11.07;6.22;;;-0.90;99.90;;;;;;5057166;28;20043;-68
2024/01/08 07:39:02;;;;;;;10.15;6.75;;;-0.90;99.90;;;;;;5056016;28;20048;-68
2024/01/08 07:41:28;;;;;;;10.90;6.03;;;-0.90;99.90;;;;;;5057217;28;20040;-68
2024/01/08 07:43:53;;;;;;;12.63;7.00;;;-0.90;99.90;;;;;;5059243;28;20067;-69
2024/01/08 07:46:19;;;;;;;9.25;6.47;;;-0.80;99.90;;;;;;5054569;28;20044;-69
2024/01/08 07:48:45;;;;;;;11.45;6.10;;;-0.90;99.90;;;;;;5054918;28;20074;-68
2024/01/08 07:51:10;;;;;;;8.40;5.75;;;-0.80;99.90;;;;;;5051820;28;20044;-68
2024/01/08 07:53:36;;;;;;;10.73;5.90;;;-0.80;99.90;;;;;;5055399;28;20536;-69
2024/01/08 07:56:03;;;;;;;11.43;5.63;;;-0.80;99.90;;;;;;5056014;28;20044;-69
2024/01/08 07:58:29;;;;;;;8.90;5.45;;;-0.80;99.90;;;;;;5057102;28;20391;-68
2024/01/08 08:00:54;;;;;;;10.88;5.70;;;-0.80;99.90;;;;;;5053788;28;20087;-68
2024/01/08 08:03:20;;;;;;;10.35;5.70;;;-0.70;99.90;;;;;;5036946;28;20052;-69
2024/01/08 08:05:46;;;;;;;9.15;5.45;;;-0.70;99.90;;;;;;5056159;28;20058;-68
2024/01/08 08:08:12;;;;;;;8.18;5.60;;;-0.70;99.90;;;;;;5055539;28;20048;-68
2024/01/08 08:10:37;;;;;;;8.65;5.40;;;-0.70;99.90;;;;;;5053128;28;21083;-67
2024/01/08 08:13:03;;;;;;;9.88;5.60;;;-0.60;99.90;;;;;;5056656;28;20052;-68
2024/01/08 08:15:29;;;;;;;10.00;5.75;;;-0.60;99.90;;;;;;5059453;28;20048;-68
2024/01/08 08:17:55;;;;;;;8.07;5.05;;;-0.50;99.90;;;;;;5059282;28;20041;-67
2024/01/08 08:20:21;;;;;;;6.47;4.88;;;-0.50;99.90;;;;;;5061396;28;20051;-67
2024/01/08 08:22:47;;;;;;;7.70;5.07;;;-0.50;99.90;;;;;;5055186;28;20430;-67
2024/01/08 08:25:13;;;;;;;7.28;4.72;;;-0.40;99.90;;;;;;5056192;28;20070;-67
2024/01/08 08:27:38;;;;;;;8.02;4.47;;;-0.40;99.90;;;;;;5054589;28;20048;-67
2024/01/08 08:30:06;;;;;;;8.55;5.18;;;-0.30;99.90;;;;;;5060879;28;20043;-68
2024/01/08 08:32:31;;;;;;;7.07;4.45;;;-0.30;99.90;;;;;;5057570;28;21952;-68
2024/01/08 08:34:57;;;;;;;6.75;4.57;;;-0.30;99.90;;;;;;5055241;28;20043;-69
2024/01/08 08:37:23;;;;;;;8.68;4.57;;;-0.20;99.90;;;;;;5059586;28;20487;-69
2024/01/08 08:39:48;;;;;;;7.45;4.50;;;-0.20;99.90;;;;;;5052524;28;20047;-70
2024/01/08 08:42:14;;;;;;;8.25;4.72;;;-0.20;99.90;;;;;;5054264;28;20052;-70
2024/01/08 08:44:40;;;;;;;7.13;4.63;;;-0.30;99.90;;;;;;5051540;28;20041;-71
2024/01/08 08:47:05;;;;;;;7.57;4.90;;;-0.30;99.90;;;;;;5059525;28;20125;-70
2024/01/08 08:49:31;;;;;;;9.50;4.50;;;-0.30;99.90;;;;;;5054847;28;20049;-71
2024/01/08 08:51:59;;;;;;;7.20;4.40;;;-0.30;99.90;;;;;;5058476;28;20076;-70
2024/01/08 08:54:24;;;;;;;6.78;5.00;;;-0.30;99.90;;;;;;5058220;28;20044;-71
2024/01/08 08:56:50;;;;;;;10.55;4.53;;;-0.30;99.90;;;;;;5056049;28;20667;-69
2024/01/08 08:59:16;;;;;;;8.20;4.38;;;-0.30;99.90;;;;;;5054498;28;20048;-68
2024/01/08 09:01:41;;;;;;;8.68;5.60;;;-0.30;99.90;;;;;;5055839;28;20067;-68
2024/01/08 09:04:07;;;;;;;7.72;5.05;;;-0.30;99.90;;;;;;5053791;28;20033;-68
2024/01/08 09:06:35;;;;;;;18.35;7.15;;;-0.20;99.90;;;;;;5060468;28;20036;-68
2024/01/08 09:09:02;;;;;;;7.00;4.32;;;-0.20;99.90;;;;;;5054546;28;20037;-68
2024/01/08 09:11:28;;;;;;;9.63;4.85;;;-0.20;99.90;;;;;;5051923;28;21517;-68
2024/01/08 09:13:53;;;;;;;11.30;5.75;;;-0.20;99.90;;;;;;5056585;28;20140;-68
2024/01/08 09:16:20;;;;;;;7.65;4.60;;;-0.10;99.90;;;;;;5053431;28;20136;-68
2024/01/08 09:18:46;;;;;;;8.63;5.57;;;-0.20;99.90;;;;;;5053311;28;20129;-68
2024/01/08 09:21:13;;;;;;;8.02;5.25;;;-0.10;99.90;;;;;;5055159;28;20186;-68
2024/01/08 09:23:42;;;;;;;8.25;4.80;;;-0.10;99.90;;;;;;5052713;28;20064;-69
2024/01/08 09:26:08;;;;;;;6.65;4.43;;;0.00;99.90;;;;;;5054705;28;20053;-68
2024/01/08 09:28:34;;;;;;;8.65;4.55;;;0.00;99.90;;;;;;5055541;28;20051;-69
2024/01/08 09:31:04;;;;;;;8.23;5.13;;;-0.10;99.90;;;;;;5057898;28;20048;-68
2024/01/08 09:33:30;;;;;;;8.52;4.65;;;0.00;99.90;;;;;;5050873;28;20053;-68
2024/01/08 09:35:56;;;;;;;11.80;4.95;;;0.00;99.90;;;;;;5049390;28;20059;-68
2024/01/08 09:38:22;;;;;;;7.20;4.95;;;0.00;99.90;;;;;;5048405;28;20503;-68
2024/01/08 09:40:48;;;;;;;8.48;4.38;;;0.00;99.90;;;;;;5052877;28;20107;-68
2024/01/08 09:43:15;;;;;;;9.43;4.75;;;0.00;99.90;;;;;;5057098;28;20511;-68
2024/01/08 09:45:56;;;;;;;8.88;4.95;;;0.10;99.90;;;;;;5052818;28;20067;-68
2024/01/08 09:48:23;;;;;;;8.05;4.68;;;0.10;99.90;;;;;;5049849;28;20037;-68
2024/01/08 09:50:49;;;;;;;7.22;4.57;;;0.10;99.90;;;;;;5049468;28;20051;-68
2024/01/08 09:53:15;;;;;;;9.77;4.72;;;0.10;99.90;;;;;;5055038;28;20044;-68
2024/01/08 09:55:44;;;;;;;6.85;4.82;;;0.10;99.90;;;;;;5057529;28;20045;-69
2024/01/08 09:58:10;;;;;;;10.23;4.50;;;0.10;99.90;;;;;;5053766;28;22454;-69
2024/01/08 10:00:36;;;;;;;6.35;4.25;;;0.10;99.90;;;;;;5049499;28;20383;-68
2024/01/08 10:03:01;;;;;;;8.60;4.63;;;0.20;99.90;;;;;;5044356;28;20045;-69
2024/01/08 10:05:28;;;;;;;12.65;4.03;;;0.10;99.90;;;;;;5049576;28;20048;-70
2024/01/08 10:07:54;;;;;;;8.02;4.35;;;0.20;99.90;;;;;;5053190;28;20049;-72
2024/01/08 10:10:21;;;;;;;8.10;4.47;;;0.20;99.90;;;;;;5052456;28;20048;-72
2024/01/08 10:12:49;;;;;;;8.45;4.53;;;0.20;99.90;;;;;;5050747;28;20036;-70
2024/01/08 10:15:18;;;;;;;10.35;4.53;;;0.20;99.90;;;;;;5054504;28;20522;-70
2024/01/08 10:17:50;;;;;;;8.25;3.72;;;0.20;99.90;;;;;;5051452;28;20143;-70
2024/01/08 10:20:17;;;;;;;8.18;4.15;;;0.30;99.90;;;;;;5053808;28;20608;-70
2024/01/08 10:22:44;;;;;;;7.63;4.07;;;0.30;99.90;;;;;;5052737;28;20392;-70
2024/01/08 10:25:11;;;;;;;5.90;4.15;;;0.40;99.90;;;;;;5053366;28;20040;-71
2024/01/08 10:27:36;;;;;;;7.70;4.30;;;0.30;99.90;;;;;;5058550;28;20384;-69
2024/01/08 10:30:03;;;;;;;9.10;4.05;;;0.40;99.90;;;;;;5056552;28;20097;-69
2024/01/08 10:32:31;;;;;;;7.40;3.72;;;0.40;99.90;;;;;;5055825;28;20032;-69
2024/01/08 10:34:57;;;;;;;6.32;4.10;;;0.40;99.90;;;;;;5056187;28;20055;-69
2024/01/08 10:37:24;;;;;;;6.65;4.00;;;0.40;99.90;;;;;;5061066;28;20044;-69
2024/01/08 10:39:51;;;;;;;7.10;4.18;;;0.50;99.90;;;;;;5057589;28;20048;-70
2024/01/08 10:42:17;;;;;;;7.32;4.32;;;0.50;99.90;;;;;;5058286;28;20036;-70
2024/01/08 10:44:43;;;;;;;7.82;4.20;;;0.50;99.90;;;;;;5058970;28;20040;-70
2024/01/08 10:47:10;;;;;;;9.70;4.50;;;0.50;99.90;;;;;;5061549;28;20063;-70
2024/01/08 10:49:36;;;;;;;5.93;4.03;;;0.50;99.90;;;;;;5055155;28;20426;-70
2024/01/08 10:52:24;;;;;;;9.70;4.00;;;0.60;99.90;;;;;;5055270;28;20032;-70
2024/01/08 10:55:17;;;;;;;12.20;8.05;;;0.60;99.90;;;;;;5056607;28;20095;-70
2024/01/08 10:58:07;;;;;;;9.85;4.47;;;0.60;99.90;;;;;;5052249;28;20056;-70
2024/01/08 11:00:33;;;;;;;6.32;3.95;;;0.50;99.90;;;;;;5058261;28;20045;-70
2024/01/08 11:03:00;;;;;;;6.22;3.50;;;0.50;99.90;;;;;;5060507;28;20053;-70
2024/01/08 11:05:32;;;;;;;6.72;3.92;;;0.60;99.90;;;;;;5055115;28;20040;-71
2024/01/08 11:07:58;;;;;;;6.30;3.83;;;0.60;99.90;;;;;;5050733;28;20603;-70
2024/01/08 11:10:24;;;;;;;6.10;3.80;;;0.60;99.90;;;;;;5060787;28;20057;-71
2024/01/08 11:12:55;;;;;;;5.97;3.60;;;0.60;99.90;;;;;;5054509;28;20069;-71
2024/01/08 11:15:23;;;;;;;6.10;3.60;;;0.50;99.90;;;;;;5058396;28;20047;-72
2024/01/08 11:17:52;;;;;;;5.38;3.78;;;0.60;99.90;;;;;;5055240;28;20071;-72
2024/01/08 11:20:46;;;;;;;6.40;3.95;;;0.70;99.90;;;;;;5060543;28;20040;-71
2024/01/08 11:23:34;;;;;;;7.72;4.00;;;0.90;99.90;;;;;;5043207;28;20036;-73
2024/01/08 11:26:02;;;;;;;5.80;3.78;;;1.00;99.90;;;;;;5057302;28;20072;-72
2024/01/08 11:28:30;;;;;;;6.55;4.25;;;1.20;99.90;;;;;;5059373;28;20051;-72
2024/01/08 11:31:29;;;;;;;7.10;3.78;;;1.10;99.90;;;;;;5061390;28;20510;-72
2024/01/08 11:34:12;;;;;;;5.47;3.65;;;1.10;99.90;;;;;;5059891;28;20044;-73
2024/01/08 11:36:47;;;;;;;5.85;3.80;;;1.10;99.90;;;;;;5043103;28;20159;-73
2024/01/08 11:39:17;;;;;;;9.20;4.60;;;1.00;99.90;;;;;;5054981;28;20051;-73
2024/01/08 11:41:44;;;;;;;6.57;3.63;;;1.00;99.90;;;;;;5053257;28;20044;-73
2024/01/08 11:44:10;;;;;;;6.43;3.92;;;1.00;99.90;;;;;;5054772;28;20043;-74
2024/01/08 11:46:35;;;;;;;5.15;3.72;;;0.90;99.90;;;;;;5043130;28;20048;-74
2024/01/08 11:49:05;;;;;;;6.70;3.90;;;1.00;99.90;;;;;;5043566;28;20048;-74
2024/01/08 11:51:32;;;;;;;5.95;4.03;;;0.90;99.90;;;;;;5041013;28;20040;-75
2024/01/08 11:54:03;;;;;;;5.18;4.00;;;1.00;99.90;;;;;;5049305;28;20055;-75
2024/01/08 11:56:29;;;;;;;4.60;3.28;;;1.00;99.90;;;;;;5049507;28;20052;-75
2024/01/08 11:58:55;;;;;;;9.98;3.67;;;1.10;99.90;;;;;;5052622;28;20040;-76
2024/01/08 12:01:20;;;;;;;8.00;3.92;;;1.20;99.90;;;;;;5055200;28;20151;-76
2024/01/08 12:03:46;;;;;;;5.85;3.50;;;1.30;99.90;;;;;;5046174;28;22088;-75
2024/01/08 12:06:12;;;;;;;6.15;4.00;;;1.30;99.90;;;;;;5053146;28;20075;-75
2024/01/08 12:08:38;;;;;;;5.00;3.40;;;1.30;99.90;;;;;;5054228;28;20040;-75
2024/01/08 12:11:04;;;;;;;6.45;4.05;;;1.20;99.90;;;;;;5057529;28;20045;-75
2024/01/08 12:13:30;;;;;;;8.55;3.80;;;1.20;99.90;;;;;;5059015;28;20201;-75
2024/01/08 12:15:57;;;;;;;7.40;3.95;;;1.10;99.90;;;;;;5054845;28;20123;-75
2024/01/08 12:18:23;;;;;;;8.10;4.20;;;1.10;99.90;;;;;;5058351;28;20068;-75
2024/01/08 12:20:50;;;;;;;7.82;3.80;;;0.90;99.90;;;;;;5055509;28;20037;-75
2024/01/08 12:23:15;;;;;;;4.80;3.63;;;0.90;99.90;;;;;;5060237;28;20458;-75
2024/01/08 12:25:41;;;;;;;7.32;4.20;;;0.80;99.90;;;;;;5057149;28;20045;-74
2024/01/08 12:28:07;;;;;;;7.60;4.00;;;1.00;99.90;;;;;;5058934;28;20503;-76
2024/01/08 12:30:33;;;;;;;6.45;4.10;;;1.30;99.90;;;;;;5054172;28;20566;-77
2024/01/08 13:44:11;;;;;;;8.43;4.18;;;5.40;99.90;;;;;;5103756;27;20433;-78
2024/01/08 13:46:39;;;;;;;20.98;6.68;;;6.90;99.90;;;;;;5117159;27;20097;-78
2024/01/08 13:49:08;;;;;;;10.35;3.80;;;6.80;99.90;;;;;;5080098;28;20041;-74
2024/01/08 13:51:33;;;;;;;7.88;3.40;;;6.80;99.90;;;;;;5073333;28;20168;-74
2024/01/08 13:53:59;;;;;;;6.53;2.88;;;6.50;99.90;;;;;;5073216;28;20185;-75